Time;durP1;ratioP1;P1;durP2;ratioP2;P2;SDS_P1;SDS_P2;PMS_P1;PMS_P2;Temp;Humidity;BMP_temperature;BMP_pressure;BME280_temperature;BME280_humidity;BME280_pressure;Samples;Min_cycle;Max_cycle;Signal;HPM_P1;HPM_P2
2021/11/03 00:01:38;;;;;;;1.4;1.2;;;;;;;;;;;;;
2021/11/03 00:04:03;;;;;;;2;1.4;;;;;;;;;;;;;
2021/11/03 00:06:28;;;;;;;5.1;3.4;;;;;;;;;;;;;
2021/11/03 00:08:53;;;;;;;2.2;1.4;;;;;;;;;;;;;
2021/11/03 00:11:18;;;;;;;2.5;1.7;;;;;;;;;;;;;
2021/11/03 00:13:44;;;;;;;2.1;1.5;;;;;;;;;;;;;
2021/11/03 00:16:09;;;;;;;2.4;1.6;;;;;;;;;;;;;
2021/11/03 00:18:34;;;;;;;2.1;1.6;;;;;;;;;;;;;
2021/11/03 00:20:59;;;;;;;2.4;1.6;;;;;;;;;;;;;
2021/11/03 00:23:24;;;;;;;1.7;1.5;;;;;;;;;;;;;
2021/11/03 00:25:50;;;;;;;2.4;1.3;;;;;;;;;;;;;
2021/11/03 00:28:36;;;;;;;2.1;1.5;;;;;;;;;;;;;
2021/11/03 00:30:43;;;;;;;1.3;1.2;;;;;;;;;;;;;
2021/11/03 00:33:08;;;;;;;1.8;1.3;;;;;;;;;;;;;
2021/11/03 00:35:34;;;;;;;1.5;1.4;;;;;;;;;;;;;
2021/11/03 00:37:59;;;;;;;1.3;1.2;;;;;;;;;;;;;
2021/11/03 00:40:24;;;;;;;1.6;1.4;;;;;;;;;;;;;
2021/11/03 00:42:50;;;;;;;2.6;1.7;;;;;;;;;;;;;
2021/11/03 00:45:14;;;;;;;2.1;1.8;;;;;;;;;;;;;
2021/11/03 00:47:39;;;;;;;1.3;1.2;;;;;;;;;;;;;
2021/11/03 00:50:05;;;;;;;1.5;1.4;;;;;;;;;;;;;
2021/11/03 00:52:30;;;;;;;1.7;1.4;;;;;;;;;;;;;
2021/11/03 00:54:55;;;;;;;2.4;2.1;;;;;;;;;;;;;
2021/11/03 00:57:21;;;;;;;1.5;1.3;;;;;;;;;;;;;
2021/11/03 00:59:46;;;;;;;1.8;1.5;;;;;;;;;;;;;
2021/11/03 01:02:11;;;;;;;1.7;1.4;;;;;;;;;;;;;
2021/11/03 01:04:37;;;;;;;2.1;1.5;;;;;;;;;;;;;
2021/11/03 01:07:03;;;;;;;1.7;1.2;;;;;;;;;;;;;
2021/11/03 01:09:27;;;;;;;1.3;1.1;;;;;;;;;;;;;
2021/11/03 01:11:54;;;;;;;1.6;1.1;;;;;;;;;;;;;
2021/11/03 01:14:19;;;;;;;1.6;1.5;;;;;;;;;;;;;
2021/11/03 01:16:44;;;;;;;1.8;1.6;;;;;;;;;;;;;
2021/11/03 01:19:09;;;;;;;2;1.5;;;;;;;;;;;;;
2021/11/03 01:21:34;;;;;;;1.5;1.4;;;;;;;;;;;;;
2021/11/03 01:24:00;;;;;;;1.4;1.3;;;;;;;;;;;;;
2021/11/03 01:26:25;;;;;;;1.5;1.4;;;;;;;;;;;;;
2021/11/03 01:29:00;;;;;;;2;1.6;;;;;;;;;;;;;
2021/11/03 01:31:24;;;;;;;1.7;1.4;;;;;;;;;;;;;
2021/11/03 01:33:50;;;;;;;1.2;1.1;;;;;;;;;;;;;
2021/11/03 01:36:15;;;;;;;1.4;1.2;;;;;;;;;;;;;
2021/11/03 01:38:40;;;;;;;1.2;1.1;;;;;;;;;;;;;
2021/11/03 01:41:06;;;;;;;1.2;1.1;;;;;;;;;;;;;
2021/11/03 01:43:31;;;;;;;1.3;1.2;;;;;;;;;;;;;
2021/11/03 01:45:57;;;;;;;1.3;1.2;;;;;;;;;;;;;
2021/11/03 01:48:22;;;;;;;1.2;1.1;;;;;;;;;;;;;
2021/11/03 01:50:50;;;;;;;1.8;1.4;;;;;;;;;;;;;
2021/11/03 01:53:15;;;;;;;2.3;1.6;;;;;;;;;;;;;
2021/11/03 01:55:41;;;;;;;1.8;1.4;;;;;;;;;;;;;
2021/11/03 01:58:06;;;;;;;2;1.3;;;;;;;;;;;;;
2021/11/03 02:00:31;;;;;;;1.4;1.3;;;;;;;;;;;;;
2021/11/03 02:02:57;;;;;;;1.4;1.3;;;;;;;;;;;;;
2021/11/03 02:05:22;;;;;;;1.5;1.4;;;;;;;;;;;;;
2021/11/03 02:07:48;;;;;;;1.4;1.3;;;;;;;;;;;;;
2021/11/03 02:10:13;;;;;;;2.2;1.4;;;;;;;;;;;;;
2021/11/03 02:12:38;;;;;;;1.4;1.2;;;;;;;;;;;;;
2021/11/03 02:15:04;;;;;;;1.8;1.5;;;;;;;;;;;;;
2021/11/03 02:17:29;;;;;;;1.3;1.2;;;;;;;;;;;;;
2021/11/03 02:19:54;;;;;;;1.5;1.4;;;;;;;;;;;;;
2021/11/03 02:22:19;;;;;;;2.1;1.9;;;;;;;;;;;;;
2021/11/03 02:24:44;;;;;;;1.6;1.5;;;;;;;;;;;;;
2021/11/03 02:27:11;;;;;;;1.8;1.7;;;;;;;;;;;;;
2021/11/03 02:29:36;;;;;;;2.3;1.8;;;;;;;;;;;;;
2021/11/03 02:32:02;;;;;;;2.2;1.4;;;;;;;;;;;;;
2021/11/03 02:34:27;;;;;;;2.2;1.6;;;;;;;;;;;;;
2021/11/03 02:36:53;;;;;;;3.6;2.5;;;;;;;;;;;;;
2021/11/03 02:39:18;;;;;;;1.7;1.5;;;;;;;;;;;;;
2021/11/03 02:41:43;;;;;;;1.5;1.3;;;;;;;;;;;;;
2021/11/03 02:44:09;;;;;;;2;1.7;;;;;;;;;;;;;
2021/11/03 02:46:34;;;;;;;2;1.5;;;;;;;;;;;;;
2021/11/03 02:48:59;;;;;;;2.3;1.6;;;;;;;;;;;;;
2021/11/03 02:51:24;;;;;;;2.7;1.7;;;;;;;;;;;;;
2021/11/03 02:53:49;;;;;;;3.1;1.7;;;;;;;;;;;;;
2021/11/03 02:56:15;;;;;;;1.6;1.5;;;;;;;;;;;;;
2021/11/03 02:58:40;;;;;;;1.5;1.3;;;;;;;;;;;;;
2021/11/03 03:01:05;;;;;;;1.7;1.3;;;;;;;;;;;;;
2021/11/03 03:03:31;;;;;;;1.5;1.4;;;;;;;;;;;;;
2021/11/03 03:05:56;;;;;;;1.5;1.4;;;;;;;;;;;;;
2021/11/03 03:08:21;;;;;;;1.9;1.6;;;;;;;;;;;;;
2021/11/03 03:10:46;;;;;;;1.6;1.5;;;;;;;;;;;;;
2021/11/03 03:13:12;;;;;;;1.7;1.3;;;;;;;;;;;;;
2021/11/03 03:15:40;;;;;;;2.2;1.7;;;;;;;;;;;;;
2021/11/03 03:18:06;;;;;;;2.3;1.7;;;;;;;;;;;;;
2021/11/03 03:20:31;;;;;;;2.1;1.5;;;;;;;;;;;;;
2021/11/03 03:22:58;;;;;;;2.3;2.1;;;;;;;;;;;;;
2021/11/03 03:25:23;;;;;;;2.7;2.1;;;;;;;;;;;;;
2021/11/03 03:27:48;;;;;;;1.6;1.5;;;;;;;;;;;;;
2021/11/03 03:30:13;;;;;;;4.5;4.1;;;;;;;;;;;;;
2021/11/03 03:32:38;;;;;;;1.9;1.6;;;;;;;;;;;;;
2021/11/03 03:35:06;;;;;;;1.7;1.5;;;;;;;;;;;;;
2021/11/03 03:37:35;;;;;;;3.5;2.9;;;;;;;;;;;;;
2021/11/03 03:40:01;;;;;;;3;2.2;;;;;;;;;;;;;
2021/11/03 03:42:26;;;;;;;4.1;3.2;;;;;;;;;;;;;
2021/11/03 03:44:51;;;;;;;3;2.5;;;;;;;;;;;;;
2021/11/03 03:47:18;;;;;;;2.4;1.7;;;;;;;;;;;;;
2021/11/03 03:49:43;;;;;;;1.5;1.4;;;;;;;;;;;;;
2021/11/03 03:54:51;;;;;;;1.7;1.6;;;;;;;;;;;;;
2021/11/03 03:57:17;;;;;;;1.8;1.6;;;;;;;;;;;;;
2021/11/03 03:59:42;;;;;;;2;1.8;;;;;;;;;;;;;
2021/11/03 04:02:31;;;;;;;4.8;3.1;;;;;;;3.8;95.00879;923.2341;;;;
2021/11/03 04:04:56;;;;;;;7.2;5.4;;;;;;;3.78;95.26367;923.2056;;;;
2021/11/03 04:07:24;;;;;;;3.1;1.8;;;;;;;3.63;95.08301;923.2111;;;;
2021/11/03 04:09:49;;;;;;;3.6;1.8;;;;;;;3.7;94.74023;923.2693;;;;
2021/11/03 04:12:19;;;;;;;2;1.8;;;;;;;3.69;94.79395;923.2849;;;;
2021/11/03 04:14:52;;;;;;;6.2;5.3;;;;;;;3.49;95.2998;923.2944;;;;
2021/11/03 04:17:19;;;;;;;8.6;7.1;;;;;;;3.33;96.67871;923.2497;;;;
2021/11/03 04:19:44;;;;;;;4.6;3.3;;;;;;;3.43;96.70117;923.2456;;;;
2021/11/03 04:22:13;;;;;;;2;1.7;;;;;;;3.41;96.37109;923.1998;;;;
2021/11/03 04:24:38;;;;;;;2.5;1.9;;;;;;;3.48;96.05078;923.1667;;;;
2021/11/03 04:27:03;;;;;;;3.1;1.6;;;;;;;3.6;96.1582;923.17;;;;
2021/11/03 04:29:28;;;;;;;3.4;1.7;;;;;;;3.68;96.14063;923.0754;;;;
2021/11/03 04:31:56;;;;;;;2.1;1.9;;;;;;;3.78;95.48828;923.0781;;;;
2021/11/03 04:34:21;;;;;;;2.9;1.8;;;;;;;3.83;95.20801;923.0828;;;;
2021/11/03 04:36:47;;;;;;;3;1.8;;;;;;;3.72;95.67676;923.0696;;;;
2021/11/03 04:39:12;;;;;;;4.4;3.3;;;;;;;3.7;95.87695;922.9836;;;;
2021/11/03 04:41:41;;;;;;;3.8;3;;;;;;;3.65;96.56152;923.0847;;;;
2021/11/03 04:44:06;;;;;;;4;2.2;;;;;;;3.71;96.64063;923.0623;;;;
2021/11/03 04:46:34;;;;;;;2.8;1.8;;;;;;;3.81;96.54004;923.0764;;;;
2021/11/03 04:48:59;;;;;;;2.6;1.9;;;;;;;3.86;95.99023;923.0209;;;;
2021/11/03 04:51:30;;;;;;;2.3;1.8;;;;;;;3.83;95.74805;923.0986;;;;
2021/11/03 04:53:55;;;;;;;3.3;1.6;;;;;;;3.79;96.05273;923.0759;;;;
2021/11/03 04:56:24;;;;;;;4.3;2.5;;;;;;;3.88;95.52441;923.0361;;;;
2021/11/03 04:58:48;;;;;;;5;2.5;;;;;;;3.8;95.66113;922.998;;;;
2021/11/03 05:01:19;;;;;;;7.4;3.1;;;;;;;3.86;95.41699;922.9611;;;;
2021/11/03 05:03:41;;;;;;;4.9;2.8;;;;;;;3.72;95.56641;922.9382;;;;
2021/11/03 05:06:11;;;;;;;6.1;3.5;;;;;;;3.81;95.75293;922.9268;;;;
2021/11/03 05:08:35;;;;;;;5.1;3;;;;;;;3.84;95.35645;922.9444;;;;
2021/11/03 05:11:06;;;;;;;3.6;2.4;;;;;;;3.85;95.40137;922.9058;;;;
2021/11/03 05:13:34;;;;;;;4.1;2.4;;;;;;;3.85;95.66211;922.9303;;;;
2021/11/03 05:16:12;;;;;;;7;3.3;;;;;;;3.72;96.16211;922.9059;;;;
2021/11/03 05:34:13;;;;;;;5.1;2.9;;;;;;;3.87;96.09082;922.7612;;;;
2021/11/03 05:36:42;;;;;;;4.1;2.7;;;;;;;3.85;96.42676;922.6295;;;;
2021/11/03 05:39:11;;;;;;;4;3.1;;;;;;;4.01;95.83398;922.6509;;;;
2021/11/03 05:41:38;;;;;;;5.1;3.2;;;;;;;4;95.4834;922.5458;;;;
2021/11/03 05:44:07;;;;;;;5.2;2.9;;;;;;;4.15;95.13281;922.5111;;;;
2021/11/03 05:46:37;;;;;;;4.7;2.3;;;;;;;4.18;94.76953;922.39;;;;
2021/11/03 05:49:05;;;;;;;3.5;2.3;;;;;;;4.33;94.31836;922.3787;;;;
2021/11/03 05:51:29;;;;;;;6.9;4.2;;;;;;;4.3;93.91797;922.4581;;;;
2021/11/03 05:53:54;;;;;;;5.1;3.5;;;;;;;4.21;94.03125;922.4858;;;;
2021/11/03 05:56:26;;;;;;;4.3;3.3;;;;;;;4.2;93.90723;922.5405;;;;
2021/11/03 05:58:53;;;;;;;4;2.7;;;;;;;4.05;94.52344;922.5733;;;;
2021/11/03 06:01:18;;;;;;;3.1;2.4;;;;;;;4.09;95.12109;922.5823;;;;
2021/11/03 06:03:44;;;;;;;3.1;2.4;;;;;;;4.18;94.87988;922.4931;;;;
2021/11/03 06:06:09;;;;;;;2.6;2.2;;;;;;;4.23;94.55664;922.4883;;;;
2021/11/03 06:08:37;;;;;;;4.1;2.3;;;;;;;4.28;94.54395;922.495;;;;
2021/11/03 06:11:03;;;;;;;3.1;1.9;;;;;;;4.28;94.22754;922.4713;;;;
2021/11/03 06:13:27;;;;;;;2.2;1.8;;;;;;;4.34;94.3877;922.4135;;;;
2021/11/03 06:15:56;;;;;;;2.6;1.6;;;;;;;4.46;93.87305;922.301;;;;
2021/11/03 06:18:21;;;;;;;2.5;2;;;;;;;4.52;93.3125;922.2352;;;;
2021/11/03 06:20:48;;;;;;;4.2;2.1;;;;;;;4.51;93.38965;922.3131;;;;
2021/11/03 06:23:13;;;;;;;4.7;2.1;;;;;;;4.45;93.57813;922.3452;;;;
2021/11/03 06:25:43;;;;;;;5.4;2;;;;;;;4.46;93.85254;922.2939;;;;
2021/11/03 06:28:11;;;;;;;4.8;2.6;;;;;;;4.61;93.37793;922.3172;;;;
2021/11/03 06:30:37;;;;;;;6.2;2.8;;;;;;;4.66;92.98438;922.3261;;;;
2021/11/03 06:33:04;;;;;;;9;3.9;;;;;;;4.47;93.77539;922.2491;;;;
2021/11/03 06:35:34;;;;;;;10.5;4.9;;;;;;;4.65;93.58789;922.1133;;;;
2021/11/03 06:37:58;;;;;;;11.8;5.1;;;;;;;4.7;93.08203;922.2679;;;;
2021/11/03 06:40:23;;;;;;;6;3;;;;;;;4.74;93.04688;922.2461;;;;
2021/11/03 06:42:48;;;;;;;5.3;2.2;;;;;;;4.82;92.80371;922.2184;;;;
2021/11/03 06:45:23;;;;;;;7.4;3;;;;;;;5.02;92.2959;922.1895;;;;
2021/11/03 06:47:48;;;;;;;4.7;2.9;;;;;;;5.14;91.36133;922.1498;;;;
2021/11/03 06:50:19;;;;;;;5.5;3.7;;;;;;;5.02;91.42676;922.113;;;;
2021/11/03 06:52:45;;;;;;;4.9;3.8;;;;;;;4.82;92.09375;922.1735;;;;
2021/11/03 06:55:11;;;;;;;7;3.6;;;;;;;4.74;93.1709;922.0853;;;;
2021/11/03 06:57:37;;;;;;;5.4;3.1;;;;;;;4.79;93.01172;922.0469;;;;
2021/11/03 07:00:03;;;;;;;3.6;2.4;;;;;;;4.83;93.2334;922.1475;;;;
2021/11/03 07:02:28;;;;;;;6.2;3.1;;;;;;;4.66;94.23438;922.1921;;;;
2021/11/03 07:04:56;;;;;;;9.3;3.2;;;;;;;4.71;94.63867;922.1025;;;;
2021/11/03 07:07:21;;;;;;;4.1;2.4;;;;;;;4.84;94.15039;921.9891;;;;
2021/11/03 07:09:48;;;;;;;5.3;2.3;;;;;;;5.07;92.62207;922.0288;;;;
2021/11/03 07:12:13;;;;;;;6.6;2.7;;;;;;;5.16;92.55078;922.0292;;;;
2021/11/03 07:14:39;;;;;;;5.9;3;;;;;;;5.1;93.06738;921.9682;;;;
2021/11/03 07:17:11;;;;;;;9.4;3.2;;;;;;;5.09;93.84277;921.8491;;;;
2021/11/03 07:19:31;;;;;;;8.2;3.9;;;;;;;5.03;94.1582;921.9269;;;;
2021/11/03 07:22:00;;;;;;;6;3.9;;;;;;;5.14;93.35742;921.9005;;;;
2021/11/03 07:24:25;;;;;;;5.7;3.4;;;;;;;5.24;92.91797;921.8971;;;;
2021/11/03 07:26:51;;;;;;;7.3;4.5;;;;;;;5.22;92.59863;921.8;;;;
2021/11/03 07:29:16;;;;;;;5.1;3.6;;;;;;;5.37;92.47168;921.9353;;;;
2021/11/03 07:31:42;;;;;;;5.3;3.4;;;;;;;5.45;92.43359;921.9839;;;;
2021/11/03 07:34:07;;;;;;;5.8;3.6;;;;;;;5.52;91.92969;921.9674;;;;
2021/11/03 07:36:36;;;;;;;4.1;2.8;;;;;;;5.65;91.32422;921.9269;;;;
2021/11/03 07:38:59;;;;;;;3.7;2.4;;;;;;;5.75;90.10547;921.8243;;;;
2021/11/03 07:41:33;;;;;;;3.1;1.8;;;;;;;5.86;89.08789;921.8262;;;;
2021/11/03 07:43:58;;;;;;;2.8;1.7;;;;;;;5.85;88.81445;921.861;;;;
2021/11/03 07:46:23;;;;;;;2.5;1.5;;;;;;;6.01;85.66406;921.8647;;;;
2021/11/03 07:48:49;;;;;;;2.5;1.2;;;;;;;6.24;85.2002;921.7795;;;;
2021/11/03 07:51:14;;;;;;;4;2.5;;;;;;;6.29;86.99609;921.6174;;;;
2021/11/03 07:53:40;;;;;;;3.8;2.2;;;;;;;6.41;86.96289;921.5154;;;;
2021/11/03 07:56:07;;;;;;;9.5;3.2;;;;;;;6.31;87.79102;921.6008;;;;
2021/11/03 07:58:32;;;;;;;6.4;4.4;;;;;;;6.36;87.30469;921.5549;;;;
2021/11/03 08:00:58;;;;;;;15.1;6.7;;;;;;;6.25;87.19238;921.4697;;;;
2021/11/03 08:03:23;;;;;;;17.4;8;;;;;;;6.2;88.27734;921.5382;;;;
2021/11/03 08:05:51;;;;;;;15.4;8.3;;;;;;;6.2;88.45801;921.5192;;;;
2021/11/03 08:10:42;;;;;;;4.5;3.1;;;;;;;6.47;88.08301;921.4805;;;;
2021/11/03 08:13:06;;;;;;;3.4;1.9;;;;;;;6.37;88.56152;921.5492;;;;
2021/11/03 08:15:37;;;;;;;2.6;1.8;;;;;;;6.57;86.37402;921.5545;;;;
2021/11/03 08:18:03;;;;;;;5.3;2;;;;;;;6.56;86.12305;921.4518;;;;
2021/11/03 08:20:28;;;;;;;7;2.2;;;;;;;6.86;86.29785;921.479;;;;
2021/11/03 08:22:55;;;;;;;4.5;2.3;;;;;;;6.95;85.22754;921.4058;;;;
2021/11/03 08:25:20;;;;;;;4.5;1.9;;;;;;;7.07;84.40137;921.4008;;;;
2021/11/03 08:27:51;;;;;;;3.1;2.2;;;;;;;7.23;84.3877;921.2981;;;;
2021/11/03 08:30:18;;;;;;;2.5;2.2;;;;;;;7.2;85.35742;921.2213;;;;
2021/11/03 08:32:44;;;;;;;6.8;3.1;;;;;;;7.22;83.08301;921.223;;;;
2021/11/03 08:35:13;;;;;;;6.5;2.5;;;;;;;7.39;82.9707;921.1523;;;;
2021/11/03 08:37:38;;;;;;;4.5;2.6;;;;;;;7.62;81.94824;921.0879;;;;
2021/11/03 08:40:05;;;;;;;4.6;2.5;;;;;;;7.78;81.83008;921.1144;;;;
2021/11/03 08:42:31;;;;;;;5.2;2.4;;;;;;;7.86;82.10645;921.0648;;;;
2021/11/03 08:44:56;;;;;;;3.9;2.4;;;;;;;8.05;81.72266;921.0731;;;;
2021/11/03 08:47:21;;;;;;;18.3;3.9;;;;;;;8.18;80.78223;921.0131;;;;
2021/11/03 08:49:46;;;;;;;7.6;3.4;;;;;;;8.14;80.62695;921.0483;;;;
2021/11/03 08:52:11;;;;;;;8;3.6;;;;;;;8.02;80.83105;921.1945;;;;
2021/11/03 08:54:37;;;;;;;11.6;4.1;;;;;;;8.09;82.32031;921.1559;;;;
2021/11/03 08:57:02;;;;;;;6.7;3.2;;;;;;;8.09;82.11621;920.9783;;;;
2021/11/03 08:59:27;;;;;;;13;5.3;;;;;;;7.88;83.17676;921.0758;;;;
2021/11/03 09:01:54;;;;;;;9.8;4.7;;;;;;;8.14;82.18262;921.0334;;;;
2021/11/03 09:04:19;;;;;;;7.5;4.4;;;;;;;8.2;81.43457;921.0002;;;;
2021/11/03 12:25:49;;;;;;;7.6;3.6;;;;;;;18.77;35.42871;918.8713;;;;
2021/11/03 12:29:43;;;;;;;0.9;0.7;;;;;;;19.6;35.59961;918.6941;;;;
2021/11/03 12:32:10;;;;;;;0.9;0.5;;;;;;;20.35;33.82715;918.7276;;;;
2021/11/03 12:34:36;;;;;;;2.9;0.9;;;;;;;21.09;32.24609;918.6609;;;;
2021/11/03 12:37:01;;;;;;;1.4;0.5;;;;;;;22.01;31.9502;918.6503;;;;
2021/11/03 12:39:26;;;;;;;1.7;0.4;;;;;;;20.55;32.27734;918.6558;;;;
2021/11/03 12:41:51;;;;;;;0.5;0.5;;;;;;;20.58;32.3252;918.5676;;;;
2021/11/03 12:45:46;;;;;;;1.3;0.3;;;;;;;20.59;31.66113;918.5592;;;;
2021/11/03 12:48:04;;;;;;;1.1;0.6;;;;;;;23.04;29.13379;918.4922;;;;
2021/11/03 12:50:29;;;;;;;1.5;0.5;;;;;;;25.17;27.59766;918.4669;;;;
2021/11/03 12:52:56;;;;;;;2.6;0.8;;;;;;;25.66;25.97363;918.4744;;;;
2021/11/03 12:55:21;;;;;;;1.8;0.7;;;;;;;24.44;28.64844;918.5039;;;;
2021/11/03 12:57:48;;;;;;;3;0.4;;;;;;;25.11;26.62598;918.4504;;;;
2021/11/03 13:00:13;;;;;;;1.6;0.6;;;;;;;26.82;25.28223;918.4205;;;;
2021/11/03 13:02:38;;;;;;;0.9;0.5;;;;;;;26.64;24.9873;918.455;;;;
2021/11/03 13:05:03;;;;;;;2.5;0.6;;;;;;;26.16;25.97852;918.5469;;;;
2021/11/03 13:07:29;;;;;;;0.6;0.5;;;;;;;25.22;27.16309;918.5506;;;;
2021/11/03 13:10:07;;;;;;;0.6;0.4;;;;;;;24.07;29.29492;918.5965;;;;
2021/11/03 13:12:19;;;;;;;2;0.8;;;;;;;23.37;28.67383;918.6788;;;;
2021/11/03 13:14:44;;;;;;;1.2;0.4;;;;;;;22.19;30.89648;918.6203;;;;
2021/11/03 13:17:09;;;;;;;0.8;0.4;;;;;;;20.32;33.67285;918.5597;;;;
2021/11/03 13:19:34;;;;;;;4.8;1.1;;;;;;;19.41;35.02539;918.5942;;;;
2021/11/03 13:21:59;;;;;;;2.6;1;;;;;;;19.25;35.50195;918.6091;;;;
2021/11/03 13:24:24;;;;;;;1;0.4;;;;;;;19.22;35.91895;918.6289;;;;
2021/11/03 13:26:51;;;;;;;1.9;0.5;;;;;;;18.87;36.43652;918.6132;;;;
2021/11/03 13:29:16;;;;;;;2.9;1;;;;;;;18.21;37.17383;918.5961;;;;
2021/11/03 13:31:41;;;;;;;1.4;0.6;;;;;;;18.14;38.29492;918.5803;;;;
2021/11/03 13:34:06;;;;;;;2.6;0.6;;;;;;;17.95;37.16211;918.6163;;;;
2021/11/03 13:36:31;;;;;;;2;1.1;;;;;;;17.96;38.52148;918.6192;;;;
2021/11/03 13:39:07;;;;;;;1.1;0.6;;;;;;;17.81;39.50781;918.6238;;;;
2021/11/03 13:41:33;;;;;;;1.7;0.7;;;;;;;17.2;39.35938;918.6895;;;;
2021/11/03 13:43:59;;;;;;;2.1;0.7;;;;;;;17.14;40.41016;918.7098;;;;
2021/11/03 13:46:25;;;;;;;2;1.1;;;;;;;16.98;43.8252;918.7374;;;;
2021/11/03 13:48:53;;;;;;;2.7;0.6;;;;;;;16.77;43.88477;918.7706;;;;
2021/11/03 13:51:15;;;;;;;3;0.8;;;;;;;16.53;43.50195;918.7963;;;;
2021/11/03 13:53:40;;;;;;;3.2;1;;;;;;;16.34;43.93457;918.7207;;;;
2021/11/03 13:56:06;;;;;;;5.1;0.6;;;;;;;16.11;45.42676;918.6135;;;;
2021/11/03 13:58:31;;;;;;;5.8;1;;;;;;;16;47.11426;918.5891;;;;
2021/11/03 14:00:56;;;;;;;2.2;0.9;;;;;;;15.95;47.0166;918.5928;;;;
2021/11/03 14:03:22;;;;;;;2;1.3;;;;;;;15.93;49.29199;918.7075;;;;
2021/11/03 14:05:51;;;;;;;1.7;1.1;;;;;;;15.89;49.64453;918.8234;;;;
2021/11/03 14:08:17;;;;;;;1.6;1;;;;;;;15.78;51.06641;918.9117;;;;
2021/11/03 14:10:46;;;;;;;3;1;;;;;;;15.73;53.20898;918.873;;;;
2021/11/03 14:13:11;;;;;;;3;0.7;;;;;;;15.74;53.46582;918.8123;;;;
2021/11/03 14:15:44;;;;;;;4.4;1.6;;;;;;;15.78;51.84082;918.8244;;;;
2021/11/03 14:18:24;;;;;;;3.4;1.3;;;;;;;15.62;55.7832;918.8414;;;;
2021/11/03 14:20:57;;;;;;;3.1;0.8;;;;;;;15.59;57.12012;918.8279;;;;
2021/11/03 14:23:37;;;;;;;3.7;1;;;;;;;15.5;57.53516;918.913;;;;
2021/11/03 14:25:31;;;;;;;5.3;1.9;;;;;;;15.31;56.34473;918.934;;;;
2021/11/03 14:28:03;;;;;;;1.6;0.9;;;;;;;14.9;58.43652;919.0408;;;;
2021/11/03 14:30:29;;;;;;;1.2;1;;;;;;;14.11;61.28809;919.0764;;;;
2021/11/03 14:32:57;;;;;;;1.2;0.9;;;;;;;13.95;61.6123;919.063;;;;
2021/11/03 14:35:20;;;;;;;2;1.2;;;;;;;13.65;60.4541;919.0482;;;;
2021/11/03 14:37:44;;;;;;;1.5;1.3;;;;;;;13.22;60.78613;919.1038;;;;
2021/11/03 14:40:09;;;;;;;3.2;1.3;;;;;;;13.06;60.39551;919.1754;;;;
2021/11/03 14:42:35;;;;;;;1.8;1.2;;;;;;;12.78;61.05664;919.2431;;;;
2021/11/03 14:45:02;;;;;;;1.5;1;;;;;;;12.64;61.97852;919.2609;;;;
2021/11/03 14:47:28;;;;;;;1.3;1.2;;;;;;;12.63;62.25195;919.2589;;;;
2021/11/03 14:50:09;;;;;;;1.9;1.4;;;;;;;12.6;62.17773;919.1948;;;;
2021/11/03 14:52:33;;;;;;;2.2;1.2;;;;;;;12.51;62.6582;919.2414;;;;
2021/11/03 14:54:59;;;;;;;1.6;1.3;;;;;;;12.24;62.43652;919.2408;;;;
2021/11/03 14:57:23;;;;;;;2.1;1.5;;;;;;;12.27;62.72852;919.2867;;;;
2021/11/03 14:59:54;;;;;;;2.9;1.4;;;;;;;12.14;63.13281;919.3811;;;;
2021/11/03 15:02:13;;;;;;;2.2;1.4;;;;;;;11.92;62.87207;919.3834;;;;
2021/11/03 15:04:44;;;;;;;1.2;1.1;;;;;;;11.72;62.88965;919.4406;;;;
2021/11/03 15:07:10;;;;;;;1.1;1;;;;;;;11.19;63.93262;919.4274;;;;
2021/11/03 15:12:00;;;;;;;1.8;1.3;;;;;;;10.95;65.25781;919.6928;;;;
2021/11/03 15:14:25;;;;;;;2.4;1.2;;;;;;;10.77;65.25195;919.6328;;;;
2021/11/03 15:16:53;;;;;;;2;1.3;;;;;;;10.79;65.7002;919.6619;;;;
2021/11/03 15:19:18;;;;;;;1.8;1.2;;;;;;;10.81;65.93359;919.6456;;;;
2021/11/03 15:21:49;;;;;;;1.6;1.3;;;;;;;10.55;66.81836;919.6372;;;;
2021/11/03 15:24:14;;;;;;;1.6;1.4;;;;;;;10.55;66.06445;919.6786;;;;
2021/11/03 15:26:46;;;;;;;1.4;1.3;;;;;;;10.48;66.61328;919.747;;;;
2021/11/03 15:29:13;;;;;;;2;1.2;;;;;;;10.36;66.42188;919.757;;;;
2021/11/03 15:31:37;;;;;;;2.5;1.3;;;;;;;10.39;66.69043;919.7436;;;;
2021/11/03 15:34:03;;;;;;;2.1;1.6;;;;;;;10.46;67.22656;919.7234;;;;
2021/11/03 15:36:31;;;;;;;1.9;1.5;;;;;;;10.47;67.25098;919.81;;;;
2021/11/03 15:38:56;;;;;;;2;1.6;;;;;;;10.27;67.55273;919.8128;;;;
2021/11/03 15:41:21;;;;;;;1.5;1.3;;;;;;;10.13;67.62109;919.8889;;;;
2021/11/03 15:43:47;;;;;;;2.2;1.6;;;;;;;10.02;68.13867;919.9458;;;;
2021/11/03 15:46:12;;;;;;;1.6;1.5;;;;;;;9.86;68.2627;920.0613;;;;
2021/11/03 15:48:37;;;;;;;1.5;1.2;;;;;;;9.83;68.03906;920.116;;;;
2021/11/03 15:51:03;;;;;;;1.9;1.4;;;;;;;9.73;68.62891;920.2714;;;;
2021/11/03 15:53:28;;;;;;;1.3;1.2;;;;;;;9.8;68.37793;920.3727;;;;
2021/11/03 15:55:53;;;;;;;2.7;1.5;;;;;;;9.84;67.17676;920.494;;;;
2021/11/03 15:58:19;;;;;;;1.2;1.1;;;;;;;9.71;66.81348;920.53;;;;
2021/11/03 16:00:48;;;;;;;2.3;1.3;;;;;;;9.71;67.46191;920.5969;;;;
2021/11/03 16:06:06;;;;;;;1.1;1;;;;;;;9.73;65.66602;920.7173;;;;
2021/11/03 16:08:30;;;;;;;1.9;1.3;;;;;;;9.7;65.60449;920.9069;;;;
2021/11/03 16:10:55;;;;;;;1.8;1.3;;;;;;;9.81;65.56445;920.9592;;;;
2021/11/03 16:13:21;;;;;;;1.5;1.1;;;;;;;9.91;64.83789;920.9595;;;;
2021/11/03 16:15:50;;;;;;;1.2;1.1;;;;;;;9.97;64.91504;921.1128;;;;
2021/11/03 16:18:15;;;;;;;1.3;1.2;;;;;;;10.05;64.88281;921.1061;;;;
2021/11/03 16:20:40;;;;;;;2.9;1.6;;;;;;;10.09;64.96777;921.1984;;;;
2021/11/03 16:23:06;;;;;;;2.3;1.6;;;;;;;10.05;64.50586;921.1967;;;;
2021/11/03 16:25:30;;;;;;;3.4;1.7;;;;;;;9.87;65.74316;921.1517;;;;
2021/11/03 16:27:57;;;;;;;2.4;1.5;;;;;;;10;65.54688;921.2991;;;;
2021/11/03 16:30:22;;;;;;;2.4;1.2;;;;;;;10.01;65.31055;921.2769;;;;
2021/11/03 16:32:49;;;;;;;1.3;1.1;;;;;;;10.08;63.99512;921.3077;;;;
2021/11/03 16:35:14;;;;;;;1.4;1.3;;;;;;;10.08;64.61133;921.3578;;;;
2021/11/03 16:37:39;;;;;;;1.4;1.1;;;;;;;9.99;64.9541;921.3675;;;;
2021/11/03 16:40:04;;;;;;;1.3;1.2;;;;;;;9.87;65.50488;921.5467;;;;
2021/11/03 16:42:30;;;;;;;1.2;1.1;;;;;;;9.75;65.16797;921.6174;;;;
2021/11/03 16:44:55;;;;;;;1.2;0.9;;;;;;;9.73;65.02734;921.5613;;;;
2021/11/03 16:47:20;;;;;;;1.2;1.1;;;;;;;9.78;64.93262;921.5899;;;;
2021/11/03 16:49:45;;;;;;;1.4;1.3;;;;;;;9.83;65.625;921.6379;;;;
2021/11/03 16:52:10;;;;;;;1.2;1.1;;;;;;;9.88;65.49414;921.6747;;;;
2021/11/03 16:54:36;;;;;;;0.9;0.9;;;;;;;9.87;65.5166;921.6898;;;;
2021/11/03 16:57:02;;;;;;;1.2;1.1;;;;;;;9.86;65.51367;921.6789;;;;
2021/11/03 16:59:28;;;;;;;1.4;0.8;;;;;;;9.81;66.47559;921.7255;;;;
2021/11/03 17:01:54;;;;;;;1.9;0.9;;;;;;;9.83;66.37598;921.855;;;;
2021/11/03 17:04:19;;;;;;;1.5;1;;;;;;;9.8;67.04395;921.8884;;;;
2021/11/03 17:06:46;;;;;;;1;0.9;;;;;;;9.82;67.53711;922.0387;;;;
2021/11/03 17:09:11;;;;;;;1.3;1.2;;;;;;;9.87;67.87598;922.0101;;;;
2021/11/03 17:11:37;;;;;;;1.6;1.2;;;;;;;9.95;68.52637;922.0122;;;;
2021/11/03 17:14:02;;;;;;;3.6;1.5;;;;;;;9.82;69.05371;922.0316;;;;
2021/11/03 17:17:26;;;;;;;2.4;1.4;;;;;;;9.85;69.00098;922.0598;;;;
2021/11/03 17:19:30;;;;;;;1.8;1.7;;;;;;;9.69;70.58301;922.1699;;;;
2021/11/03 17:21:55;;;;;;;3.1;2;;;;;;;9.51;72.20508;922.2092;;;;
2021/11/03 17:24:20;;;;;;;1.7;1.6;;;;;;;9.37;74.16211;922.2401;;;;
2021/11/03 17:26:45;;;;;;;1.5;1.4;;;;;;;9.44;73.16113;922.326;;;;
2021/11/03 17:29:10;;;;;;;3.9;2.6;;;;;;;9.45;73.87988;922.3323;;;;
2021/11/03 17:31:35;;;;;;;14.9;9.4;;;;;;;9.42;75.39941;922.3136;;;;
2021/11/03 17:34:00;;;;;;;8.7;5.6;;;;;;;9.36;77.56543;922.3132;;;;
2021/11/03 17:36:25;;;;;;;4.2;3.1;;;;;;;9.21;78.25488;922.2996;;;;
2021/11/03 17:38:51;;;;;;;3.9;2.9;;;;;;;9.05;79.11426;922.3578;;;;
2021/11/03 17:41:17;;;;;;;1;0.9;;;;;;;8.82;80.21973;922.394;;;;
2021/11/03 17:43:42;;;;;;;2;1.4;;;;;;;8.52;80.85742;922.5667;;;;
2021/11/03 17:46:06;;;;;;;2.3;1.2;;;;;;;8.62;81.77441;922.5931;;;;
2021/11/03 17:48:35;;;;;;;2.1;1.4;;;;;;;8.62;81.24023;922.5757;;;;
2021/11/03 17:51:01;;;;;;;3.2;1.3;;;;;;;8.75;82.28711;922.553;;;;
2021/11/03 17:53:27;;;;;;;1.6;1.2;;;;;;;8.68;82.49121;922.6021;;;;
2021/11/03 17:55:51;;;;;;;1.8;1.2;;;;;;;8.66;83.06738;922.511;;;;
2021/11/03 17:58:16;;;;;;;2;1.2;;;;;;;8.67;83.31934;922.6117;;;;
2021/11/03 18:00:41;;;;;;;1;1;;;;;;;8.67;83.35352;922.6546;;;;
2021/11/03 18:03:06;;;;;;;0.9;0.9;;;;;;;8.64;83.55078;922.6191;;;;
2021/11/03 18:05:31;;;;;;;2;1.6;;;;;;;8.6;83.37402;922.5803;;;;
2021/11/03 18:07:56;;;;;;;2.3;1.8;;;;;;;8.57;82.95898;922.7495;;;;
2021/11/03 18:10:21;;;;;;;3.2;2.1;;;;;;;8.61;82.55664;922.8376;;;;
2021/11/03 18:12:47;;;;;;;2.5;1.9;;;;;;;8.67;82.70508;922.8759;;;;
2021/11/03 18:15:12;;;;;;;1.9;1.4;;;;;;;8.64;81.60742;922.9453;;;;
2021/11/03 18:17:37;;;;;;;2.1;1.4;;;;;;;8.59;81.76953;922.9128;;;;
2021/11/03 18:20:02;;;;;;;3.3;1.9;;;;;;;8.64;83.95996;922.9984;;;;
2021/11/03 18:22:27;;;;;;;3.3;2.2;;;;;;;8.5;86.61621;923.0349;;;;
2021/11/03 18:24:52;;;;;;;3;1.6;;;;;;;8.51;86.85645;923.0943;;;;
2021/11/03 18:27:17;;;;;;;2.8;2;;;;;;;8.56;87.33301;923.2169;;;;
2021/11/03 18:29:43;;;;;;;3.1;2.4;;;;;;;8.59;86.00879;923.2031;;;;
2021/11/03 18:32:08;;;;;;;4.3;2.6;;;;;;;8.61;86.26074;923.2958;;;;
2021/11/03 18:34:33;;;;;;;4.4;3.6;;;;;;;8.5;86.16113;923.234;;;;
2021/11/03 18:36:58;;;;;;;6.7;4.5;;;;;;;8.27;87.40918;923.25;;;;
2021/11/03 18:39:23;;;;;;;6.8;3.7;;;;;;;8.34;87.59375;923.2316;;;;
2021/11/03 18:41:48;;;;;;;2.6;2.3;;;;;;;8.2;87.79199;923.2581;;;;
2021/11/03 18:44:15;;;;;;;2.9;2.1;;;;;;;8.41;87.36816;923.201;;;;
2021/11/03 18:46:40;;;;;;;2.7;1.9;;;;;;;8.41;86.23438;923.2076;;;;
2021/11/03 18:49:05;;;;;;;2.1;1.5;;;;;;;8.48;85.70313;923.2056;;;;
2021/11/03 18:51:30;;;;;;;2.7;1.7;;;;;;;8.48;85.46289;923.2183;;;;
2021/11/03 18:53:55;;;;;;;2.8;1.5;;;;;;;8.47;85.87012;923.2374;;;;
2021/11/03 18:56:21;;;;;;;2.1;1.9;;;;;;;8.55;85.75;923.1796;;;;
2021/11/03 18:58:46;;;;;;;2.3;1.6;;;;;;;8.54;85.46582;923.1733;;;;
2021/11/03 19:01:13;;;;;;;1.9;1.7;;;;;;;8.52;85.4375;923.3036;;;;
2021/11/03 19:03:36;;;;;;;3.1;1.8;;;;;;;8.49;85.40723;923.3086;;;;
2021/11/03 19:06:01;;;;;;;1.5;1.4;;;;;;;8.43;85.47656;923.3978;;;;
2021/11/03 19:08:26;;;;;;;2.3;1.7;;;;;;;8.14;87.03125;923.3892;;;;
2021/11/03 19:10:51;;;;;;;2.1;1.9;;;;;;;8.26;87;923.3801;;;;
2021/11/03 19:13:16;;;;;;;2.2;2;;;;;;;8.29;86.84668;923.3577;;;;
2021/11/03 19:15:43;;;;;;;3.2;2.2;;;;;;;8.26;86.78223;923.3016;;;;
2021/11/03 19:18:07;;;;;;;2.3;2.1;;;;;;;8.18;87.75586;923.282;;;;
2021/11/03 19:24:11;;;;;;;4.3;2.9;;;;;;;8.23;88.36719;923.3082;;;;
2021/11/03 19:29:04;;;;;;;3;2.7;;;;;;;8.14;88.21191;923.4939;;;;
2021/11/03 19:31:32;;;;;;;2.7;2.3;;;;;;;8.22;87.7959;923.5231;;;;
2021/11/03 19:33:54;;;;;;;2.8;2.5;;;;;;;8.24;87.52832;923.4183;;;;